sensor_id;sensor_type;location;lat;lon;timestamp;temperature;humidity
68804;SHT31;55787;52.678;13.314;2023-11-21T00:01:03;6.69;99.09
68804;SHT31;55787;52.678;13.314;2023-11-21T00:03:31;6.67;99.11
68804;SHT31;55787;52.678;13.314;2023-11-21T00:05:58;6.64;98.94
68804;SHT31;55787;52.678;13.314;2023-11-21T00:08:25;6.61;99.19
68804;SHT31;55787;52.678;13.314;2023-11-21T00:10:51;6.61;99.02
68804;SHT31;55787;52.678;13.314;2023-11-21T00:13:18;6.56;99.13
68804;SHT31;55787;52.678;13.314;2023-11-21T00:15:45;6.56;99.02
68804;SHT31;55787;52.678;13.314;2023-11-21T00:18:11;6.52;98.87
68804;SHT31;55787;52.678;13.314;2023-11-21T00:20:38;6.46;98.81
68804;SHT31;55787;52.678;13.314;2023-11-21T00:23:04;6.44;98.78
68804;SHT31;55787;52.678;13.314;2023-11-21T00:25:31;6.40;98.89
68804;SHT31;55787;52.678;13.314;2023-11-21T00:27:58;6.40;98.57
68804;SHT31;55787;52.678;13.314;2023-11-21T00:30:25;6.37;98.85
68804;SHT31;55787;52.678;13.314;2023-11-21T00:32:52;6.32;98.90
68804;SHT31;55787;52.678;13.314;2023-11-21T00:35:19;6.32;98.91
68804;SHT31;55787;52.678;13.314;2023-11-21T00:37:46;6.31;98.85
68804;SHT31;55787;52.678;13.314;2023-11-21T00:40:13;6.25;98.86
68804;SHT31;55787;52.678;13.314;2023-11-21T00:42:41;6.18;98.88
68804;SHT31;55787;52.678;13.314;2023-11-21T00:45:08;6.17;99.08
68804;SHT31;55787;52.678;13.314;2023-11-21T00:47:35;6.17;99.24
68804;SHT31;55787;52.678;13.314;2023-11-21T00:50:02;6.16;99.23
68804;SHT31;55787;52.678;13.314;2023-11-21T00:52:28;6.13;99.17
68804;SHT31;55787;52.678;13.314;2023-11-21T00:54:55;6.14;99.28
68804;SHT31;55787;52.678;13.314;2023-11-21T00:57:22;6.13;99.22
68804;SHT31;55787;52.678;13.314;2023-11-21T00:59:48;6.11;98.98
68804;SHT31;55787;52.678;13.314;2023-11-21T01:02:15;6.04;99.03
68804;SHT31;55787;52.678;13.314;2023-11-21T01:04:42;6.06;99.06
68804;SHT31;55787;52.678;13.314;2023-11-21T01:07:10;6.06;99.35
68804;SHT31;55787;52.678;13.314;2023-11-21T01:09:36;6.09;99.25
68804;SHT31;55787;52.678;13.314;2023-11-21T01:12:03;6.04;99.13
68804;SHT31;55787;52.678;13.314;2023-11-21T01:14:30;6.02;99.24
68804;SHT31;55787;52.678;13.314;2023-11-21T01:16:56;5.99;99.27
68804;SHT31;55787;52.678;13.314;2023-11-21T01:19:23;6.02;99.47
68804;SHT31;55787;52.678;13.314;2023-11-21T01:21:50;5.97;99.35
68804;SHT31;55787;52.678;13.314;2023-11-21T01:24:18;5.96;99.51
68804;SHT31;55787;52.678;13.314;2023-11-21T01:26:44;5.96;99.42
68804;SHT31;55787;52.678;13.314;2023-11-21T01:29:13;5.96;99.42
68804;SHT31;55787;52.678;13.314;2023-11-21T01:31:40;5.90;99.37
68804;SHT31;55787;52.678;13.314;2023-11-21T01:34:06;5.90;99.18
68804;SHT31;55787;52.678;13.314;2023-11-21T01:36:33;5.85;99.15
68804;SHT31;55787;52.678;13.314;2023-11-21T01:39:00;5.86;99.30
68804;SHT31;55787;52.678;13.314;2023-11-21T01:41:27;5.82;98.98
68804;SHT31;55787;52.678;13.314;2023-11-21T01:43:55;5.77;99.13
68804;SHT31;55787;52.678;13.314;2023-11-21T01:46:23;5.74;99.27
68804;SHT31;55787;52.678;13.314;2023-11-21T01:48:51;5.63;99.46
68804;SHT31;55787;52.678;13.314;2023-11-21T01:51:19;5.66;99.61
68804;SHT31;55787;52.678;13.314;2023-11-21T01:53:46;5.67;99.83
68804;SHT31;55787;52.678;13.314;2023-11-21T01:56:14;5.66;99.73
68804;SHT31;55787;52.678;13.314;2023-11-21T01:58:41;5.63;99.58
68804;SHT31;55787;52.678;13.314;2023-11-21T02:01:08;5.66;99.53
68804;SHT31;55787;52.678;13.314;2023-11-21T02:03:36;5.63;99.74
68804;SHT31;55787;52.678;13.314;2023-11-21T02:06:03;5.62;99.60
68804;SHT31;55787;52.678;13.314;2023-11-21T02:08:30;5.67;99.48
68804;SHT31;55787;52.678;13.314;2023-11-21T02:10:56;5.60;99.44
68804;SHT31;55787;52.678;13.314;2023-11-21T02:13:24;5.55;99.39
68804;SHT31;55787;52.678;13.314;2023-11-21T02:15:50;5.53;99.49
68804;SHT31;55787;52.678;13.314;2023-11-21T02:18:18;5.52;99.77
68804;SHT31;55787;52.678;13.314;2023-11-21T02:20:45;5.56;99.83
68804;SHT31;55787;52.678;13.314;2023-11-21T02:23:13;5.52;99.74
68804;SHT31;55787;52.678;13.314;2023-11-21T02:25:41;5.53;99.66
68804;SHT31;55787;52.678;13.314;2023-11-21T02:28:09;5.53;99.90
68804;SHT31;55787;52.678;13.314;2023-11-21T02:30:39;5.51;99.66
68804;SHT31;55787;52.678;13.314;2023-11-21T02:33:06;5.52;99.59
68804;SHT31;55787;52.678;13.314;2023-11-21T02:35:33;5.49;99.43
68804;SHT31;55787;52.678;13.314;2023-11-21T02:38:01;5.49;99.35
68804;SHT31;55787;52.678;13.314;2023-11-21T02:40:29;5.56;99.15
68804;SHT31;55787;52.678;13.314;2023-11-21T02:42:56;5.53;99.26
68804;SHT31;55787;52.678;13.314;2023-11-21T02:45:25;5.51;99.47
68804;SHT31;55787;52.678;13.314;2023-11-21T02:47:52;5.48;99.37
68804;SHT31;55787;52.678;13.314;2023-11-21T02:50:23;5.46;99.60
68804;SHT31;55787;52.678;13.314;2023-11-21T02:52:50;5.42;99.27
68804;SHT31;55787;52.678;13.314;2023-11-21T02:55:17;5.45;99.49
68804;SHT31;55787;52.678;13.314;2023-11-21T02:57:44;5.49;99.39
68804;SHT31;55787;52.678;13.314;2023-11-21T03:00:11;5.51;99.35
68804;SHT31;55787;52.678;13.314;2023-11-21T03:02:40;5.43;99.47
68804;SHT31;55787;52.678;13.314;2023-11-21T03:05:07;5.45;99.58
68804;SHT31;55787;52.678;13.314;2023-11-21T03:07:37;5.46;99.61
68804;SHT31;55787;52.678;13.314;2023-11-21T03:10:05;5.42;99.68
68804;SHT31;55787;52.678;13.314;2023-11-21T03:12:32;5.43;99.73
68804;SHT31;55787;52.678;13.314;2023-11-21T03:14:59;5.51;99.40
68804;SHT31;55787;52.678;13.314;2023-11-21T03:17:26;5.45;99.42
68804;SHT31;55787;52.678;13.314;2023-11-21T03:19:52;5.41;99.24
68804;SHT31;55787;52.678;13.314;2023-11-21T03:22:19;5.38;99.37
68804;SHT31;55787;52.678;13.314;2023-11-21T03:24:46;5.43;98.67
68804;SHT31;55787;52.678;13.314;2023-11-21T03:27:12;5.42;98.86
68804;SHT31;55787;52.678;13.314;2023-11-21T03:29:39;5.32;98.46
68804;SHT31;55787;52.678;13.314;2023-11-21T03:32:06;5.27;98.49
68804;SHT31;55787;52.678;13.314;2023-11-21T03:34:33;5.27;98.33
68804;SHT31;55787;52.678;13.314;2023-11-21T03:37:00;5.24;98.51
68804;SHT31;55787;52.678;13.314;2023-11-21T03:39:26;5.24;98.74
68804;SHT31;55787;52.678;13.314;2023-11-21T03:41:53;5.21;98.57
68804;SHT31;55787;52.678;13.314;2023-11-21T03:44:20;5.21;98.82
68804;SHT31;55787;52.678;13.314;2023-11-21T03:46:47;5.17;98.64
68804;SHT31;55787;52.678;13.314;2023-11-21T03:49:13;5.21;98.36
68804;SHT31;55787;52.678;13.314;2023-11-21T03:51:40;5.20;98.41
68804;SHT31;55787;52.678;13.314;2023-11-21T03:54:07;5.20;98.81
68804;SHT31;55787;52.678;13.314;2023-11-21T03:56:33;5.18;98.94
68804;SHT31;55787;52.678;13.314;2023-11-21T03:59:00;5.15;98.68
68804;SHT31;55787;52.678;13.314;2023-11-21T04:01:26;5.12;98.65
68804;SHT31;55787;52.678;13.314;2023-11-21T04:03:53;5.15;98.82
68804;SHT31;55787;52.678;13.314;2023-11-21T04:06:20;5.11;98.82
68804;SHT31;55787;52.678;13.314;2023-11-21T04:08:46;5.12;98.78
68804;SHT31;55787;52.678;13.314;2023-11-21T04:11:13;5.11;98.60
68804;SHT31;55787;52.678;13.314;2023-11-21T04:13:40;5.12;98.57
68804;SHT31;55787;52.678;13.314;2023-11-21T04:16:07;5.10;98.98
68804;SHT31;55787;52.678;13.314;2023-11-21T04:18:38;5.08;99.10
68804;SHT31;55787;52.678;13.314;2023-11-21T04:21:06;5.11;98.62
68804;SHT31;55787;52.678;13.314;2023-11-21T04:23:33;5.04;98.10
68804;SHT31;55787;52.678;13.314;2023-11-21T04:26:00;5.07;97.79
68804;SHT31;55787;52.678;13.314;2023-11-21T04:28:28;4.98;97.56
68804;SHT31;55787;52.678;13.314;2023-11-21T04:30:55;5.00;97.86
68804;SHT31;55787;52.678;13.314;2023-11-21T04:33:22;5.00;97.65
68804;SHT31;55787;52.678;13.314;2023-11-21T04:35:48;4.94;97.76
68804;SHT31;55787;52.678;13.314;2023-11-21T04:38:15;4.95;97.99
68804;SHT31;55787;52.678;13.314;2023-11-21T04:40:42;4.94;97.88
68804;SHT31;55787;52.678;13.314;2023-11-21T04:43:08;4.93;98.03
68804;SHT31;55787;52.678;13.314;2023-11-21T04:45:35;4.85;97.82
68804;SHT31;55787;52.678;13.314;2023-11-21T04:48:02;4.91;97.77
68804;SHT31;55787;52.678;13.314;2023-11-21T04:50:29;4.88;97.66
68804;SHT31;55787;52.678;13.314;2023-11-21T04:52:55;4.85;97.54
68804;SHT31;55787;52.678;13.314;2023-11-21T04:55:22;4.84;97.71
68804;SHT31;55787;52.678;13.314;2023-11-21T04:57:48;4.83;97.75
68804;SHT31;55787;52.678;13.314;2023-11-21T05:00:15;4.83;97.94
68804;SHT31;55787;52.678;13.314;2023-11-21T05:02:42;4.83;97.80
68804;SHT31;55787;52.678;13.314;2023-11-21T05:05:11;4.81;97.60
68804;SHT31;55787;52.678;13.314;2023-11-21T05:07:39;4.81;97.52
68804;SHT31;55787;52.678;13.314;2023-11-21T05:10:07;4.81;97.18
68804;SHT31;55787;52.678;13.314;2023-11-21T05:12:37;4.77;97.56
68804;SHT31;55787;52.678;13.314;2023-11-21T05:15:05;4.73;97.56
68804;SHT31;55787;52.678;13.314;2023-11-21T05:17:38;4.74;97.84
68804;SHT31;55787;52.678;13.314;2023-11-21T05:20:10;4.73;97.98
68804;SHT31;55787;52.678;13.314;2023-11-21T05:22:37;4.70;97.90
68804;SHT31;55787;52.678;13.314;2023-11-21T05:25:05;4.74;97.96
68804;SHT31;55787;52.678;13.314;2023-11-21T05:27:34;4.71;98.01
68804;SHT31;55787;52.678;13.314;2023-11-21T05:30:05;4.70;97.79
68804;SHT31;55787;52.678;13.314;2023-11-21T05:32:33;4.70;97.61
68804;SHT31;55787;52.678;13.314;2023-11-21T05:35:00;4.67;97.88
68804;SHT31;55787;52.678;13.314;2023-11-21T05:37:27;4.67;97.83
68804;SHT31;55787;52.678;13.314;2023-11-21T05:39:54;4.64;97.83
68804;SHT31;55787;52.678;13.314;2023-11-21T05:42:23;4.64;97.93
68804;SHT31;55787;52.678;13.314;2023-11-21T05:44:50;4.63;98.02
68804;SHT31;55787;52.678;13.314;2023-11-21T05:47:17;4.66;97.67
68804;SHT31;55787;52.678;13.314;2023-11-21T05:49:44;4.70;97.02
68804;SHT31;55787;52.678;13.314;2023-11-21T05:52:12;4.69;96.63
68804;SHT31;55787;52.678;13.314;2023-11-21T05:54:39;4.64;96.34
68804;SHT31;55787;52.678;13.314;2023-11-21T05:57:05;4.57;96.20
68804;SHT31;55787;52.678;13.314;2023-11-21T05:59:32;4.53;96.32
68804;SHT31;55787;52.678;13.314;2023-11-21T06:01:58;4.52;95.98
68804;SHT31;55787;52.678;13.314;2023-11-21T06:04:25;4.53;96.05
68804;SHT31;55787;52.678;13.314;2023-11-21T06:06:52;4.54;95.78
68804;SHT31;55787;52.678;13.314;2023-11-21T06:09:19;4.50;95.17
68804;SHT31;55787;52.678;13.314;2023-11-21T06:11:47;4.45;95.00
68804;SHT31;55787;52.678;13.314;2023-11-21T06:14:13;4.43;95.34
68804;SHT31;55787;52.678;13.314;2023-11-21T06:16:41;4.43;95.30
68804;SHT31;55787;52.678;13.314;2023-11-21T06:19:08;4.45;95.24
68804;SHT31;55787;52.678;13.314;2023-11-21T06:21:35;4.43;95.12
68804;SHT31;55787;52.678;13.314;2023-11-21T06:24:01;4.40;95.00
68804;SHT31;55787;52.678;13.314;2023-11-21T06:26:28;4.38;95.00
68804;SHT31;55787;52.678;13.314;2023-11-21T06:28:55;4.42;95.27
68804;SHT31;55787;52.678;13.314;2023-11-21T06:31:22;4.38;95.09
68804;SHT31;55787;52.678;13.314;2023-11-21T06:33:49;4.38;95.18
68804;SHT31;55787;52.678;13.314;2023-11-21T06:36:18;4.31;94.99
68804;SHT31;55787;52.678;13.314;2023-11-21T06:38:45;4.38;94.62
68804;SHT31;55787;52.678;13.314;2023-11-21T06:41:12;4.33;95.03
68804;SHT31;55787;52.678;13.314;2023-11-21T06:43:41;4.32;95.23
68804;SHT31;55787;52.678;13.314;2023-11-21T06:46:13;4.29;95.42
68804;SHT31;55787;52.678;13.314;2023-11-21T06:48:42;4.31;95.48
68804;SHT31;55787;52.678;13.314;2023-11-21T06:51:09;4.25;95.44
68804;SHT31;55787;52.678;13.314;2023-11-21T06:53:37;4.23;95.00
68804;SHT31;55787;52.678;13.314;2023-11-21T06:56:14;4.21;94.96
68804;SHT31;55787;52.678;13.314;2023-11-21T06:58:41;4.26;94.79
68804;SHT31;55787;52.678;13.314;2023-11-21T07:01:08;4.29;95.13
68804;SHT31;55787;52.678;13.314;2023-11-21T07:03:35;4.28;94.66
68804;SHT31;55787;52.678;13.314;2023-11-21T07:06:04;4.26;94.43
68804;SHT31;55787;52.678;13.314;2023-11-21T07:08:31;4.21;94.52
68804;SHT31;55787;52.678;13.314;2023-11-21T07:10:57;4.25;94.72
68804;SHT31;55787;52.678;13.314;2023-11-21T07:13:24;4.28;94.45
68804;SHT31;55787;52.678;13.314;2023-11-21T07:15:51;4.26;94.68
68804;SHT31;55787;52.678;13.314;2023-11-21T07:18:18;4.29;94.81
68804;SHT31;55787;52.678;13.314;2023-11-21T07:20:45;4.31;95.17
68804;SHT31;55787;52.678;13.314;2023-11-21T07:23:12;4.29;95.33
68804;SHT31;55787;52.678;13.314;2023-11-21T07:25:38;4.31;95.31
68804;SHT31;55787;52.678;13.314;2023-11-21T07:28:05;4.29;95.33
68804;SHT31;55787;52.678;13.314;2023-11-21T07:30:31;4.32;95.75
68804;SHT31;55787;52.678;13.314;2023-11-21T07:32:58;4.32;95.62
68804;SHT31;55787;52.678;13.314;2023-11-21T07:35:25;4.33;95.74
68804;SHT31;55787;52.678;13.314;2023-11-21T07:37:53;4.35;95.63
68804;SHT31;55787;52.678;13.314;2023-11-21T07:40:19;4.33;95.60
68804;SHT31;55787;52.678;13.314;2023-11-21T07:42:46;4.35;95.38
68804;SHT31;55787;52.678;13.314;2023-11-21T07:45:12;4.35;95.74
68804;SHT31;55787;52.678;13.314;2023-11-21T07:47:39;4.39;95.86
68804;SHT31;55787;52.678;13.314;2023-11-21T07:50:07;4.40;95.22
68804;SHT31;55787;52.678;13.314;2023-11-21T07:52:34;4.40;95.22
68804;SHT31;55787;52.678;13.314;2023-11-21T07:55:01;4.46;95.09
68804;SHT31;55787;52.678;13.314;2023-11-21T07:57:28;4.46;94.71
68804;SHT31;55787;52.678;13.314;2023-11-21T07:59:54;4.43;94.60
68804;SHT31;55787;52.678;13.314;2023-11-21T08:02:21;4.46;94.48
68804;SHT31;55787;52.678;13.314;2023-11-21T08:04:48;4.46;94.78
68804;SHT31;55787;52.678;13.314;2023-11-21T08:07:17;4.52;94.86
68804;SHT31;55787;52.678;13.314;2023-11-21T08:09:44;4.52;94.74
68804;SHT31;55787;52.678;13.314;2023-11-21T08:12:11;4.54;94.58
68804;SHT31;55787;52.678;13.314;2023-11-21T08:14:37;4.57;94.86
68804;SHT31;55787;52.678;13.314;2023-11-21T08:17:05;4.64;94.43
68804;SHT31;55787;52.678;13.314;2023-11-21T08:19:33;4.71;94.19
68804;SHT31;55787;52.678;13.314;2023-11-21T08:21:59;4.73;93.18
68804;SHT31;55787;52.678;13.314;2023-11-21T08:24:27;4.67;93.22
68804;SHT31;55787;52.678;13.314;2023-11-21T08:26:54;4.70;93.87
68804;SHT31;55787;52.678;13.314;2023-11-21T08:29:20;4.66;94.03
68804;SHT31;55787;52.678;13.314;2023-11-21T08:31:48;4.66;95.10
68804;SHT31;55787;52.678;13.314;2023-11-21T08:34:14;4.66;94.65
68804;SHT31;55787;52.678;13.314;2023-11-21T08:36:42;4.62;94.27
68804;SHT31;55787;52.678;13.314;2023-11-21T08:39:09;4.60;94.20
68804;SHT31;55787;52.678;13.314;2023-11-21T08:41:39;4.59;94.03
68804;SHT31;55787;52.678;13.314;2023-11-21T08:44:06;4.60;94.40
68804;SHT31;55787;52.678;13.314;2023-11-21T08:46:35;4.57;94.28
68804;SHT31;55787;52.678;13.314;2023-11-21T08:49:03;4.59;94.48
68804;SHT31;55787;52.678;13.314;2023-11-21T08:51:30;4.62;94.53
68804;SHT31;55787;52.678;13.314;2023-11-21T08:53:56;4.57;94.36
68804;SHT31;55787;52.678;13.314;2023-11-21T08:56:26;4.59;93.92
68804;SHT31;55787;52.678;13.314;2023-11-21T08:58:53;4.53;93.88
68804;SHT31;55787;52.678;13.314;2023-11-21T09:01:20;4.52;94.06
68804;SHT31;55787;52.678;13.314;2023-11-21T09:03:47;4.56;94.16
68804;SHT31;55787;52.678;13.314;2023-11-21T09:06:14;4.57;94.72
68804;SHT31;55787;52.678;13.314;2023-11-21T09:08:40;4.69;94.56
68804;SHT31;55787;52.678;13.314;2023-11-21T09:11:08;4.67;93.60
68804;SHT31;55787;52.678;13.314;2023-11-21T09:13:35;4.62;93.19
68804;SHT31;55787;52.678;13.314;2023-11-21T09:16:02;4.64;93.35
68804;SHT31;55787;52.678;13.314;2023-11-21T09:18:29;4.60;93.35
68804;SHT31;55787;52.678;13.314;2023-11-21T09:20:57;4.59;93.46
68804;SHT31;55787;52.678;13.314;2023-11-21T09:23:24;4.54;93.56
68804;SHT31;55787;52.678;13.314;2023-11-21T09:25:51;4.56;93.35
68804;SHT31;55787;52.678;13.314;2023-11-21T09:28:18;4.53;93.63
68804;SHT31;55787;52.678;13.314;2023-11-21T09:30:44;4.52;94.42
68804;SHT31;55787;52.678;13.314;2023-11-21T09:33:11;4.54;94.30
68804;SHT31;55787;52.678;13.314;2023-11-21T09:35:38;4.54;94.54
68804;SHT31;55787;52.678;13.314;2023-11-21T09:38:05;4.54;94.83
68804;SHT31;55787;52.678;13.314;2023-11-21T09:40:38;4.52;94.77
68804;SHT31;55787;52.678;13.314;2023-11-21T09:43:16;4.49;94.62
68804;SHT31;55787;52.678;13.314;2023-11-21T09:45:51;4.43;94.60
68804;SHT31;55787;52.678;13.314;2023-11-21T09:48:21;4.46;94.66
68804;SHT31;55787;52.678;13.314;2023-11-21T09:50:49;4.46;94.71
68804;SHT31;55787;52.678;13.314;2023-11-21T09:53:22;4.40;94.38
68804;SHT31;55787;52.678;13.314;2023-11-21T09:55:52;4.46;94.45
68804;SHT31;55787;52.678;13.314;2023-11-21T09:58:20;4.43;93.87
68804;SHT31;55787;52.678;13.314;2023-11-21T10:00:49;4.43;94.37
68804;SHT31;55787;52.678;13.314;2023-11-21T10:03:15;4.42;94.21
68804;SHT31;55787;52.678;13.314;2023-11-21T10:05:44;4.38;93.66
68804;SHT31;55787;52.678;13.314;2023-11-21T10:08:13;4.31;94.04
68804;SHT31;55787;52.678;13.314;2023-11-21T10:10:44;4.33;94.15
68804;SHT31;55787;52.678;13.314;2023-11-21T10:13:18;4.38;94.22
68804;SHT31;55787;52.678;13.314;2023-11-21T10:15:52;4.38;94.41
68804;SHT31;55787;52.678;13.314;2023-11-21T10:18:20;4.40;94.27
68804;SHT31;55787;52.678;13.314;2023-11-21T10:20:48;4.46;94.70
68804;SHT31;55787;52.678;13.314;2023-11-21T10:23:23;4.50;94.29
68804;SHT31;55787;52.678;13.314;2023-11-21T10:25:53;4.54;94.16
68804;SHT31;55787;52.678;13.314;2023-11-21T10:28:23;4.56;93.52
68804;SHT31;55787;52.678;13.314;2023-11-21T10:30:51;4.60;93.82
68804;SHT31;55787;52.678;13.314;2023-11-21T10:33:26;4.67;93.58
68804;SHT31;55787;52.678;13.314;2023-11-21T10:35:53;4.73;93.34
68804;SHT31;55787;52.678;13.314;2023-11-21T10:38:21;4.73;93.59
68804;SHT31;55787;52.678;13.314;2023-11-21T10:40:51;4.76;92.70
68804;SHT31;55787;52.678;13.314;2023-11-21T10:43:18;4.71;92.72
68804;SHT31;55787;52.678;13.314;2023-11-21T10:45:45;4.66;92.91
68804;SHT31;55787;52.678;13.314;2023-11-21T10:48:15;4.63;93.04
68804;SHT31;55787;52.678;13.314;2023-11-21T10:50:46;4.56;93.27
68804;SHT31;55787;52.678;13.314;2023-11-21T10:53:13;4.49;93.82
68804;SHT31;55787;52.678;13.314;2023-11-21T10:55:40;4.48;93.47
68804;SHT31;55787;52.678;13.314;2023-11-21T10:58:07;4.45;93.82
68804;SHT31;55787;52.678;13.314;2023-11-21T11:00:37;4.43;93.94
68804;SHT31;55787;52.678;13.314;2023-11-21T11:03:07;4.43;94.35
68804;SHT31;55787;52.678;13.314;2023-11-21T11:05:43;4.42;94.70
68804;SHT31;55787;52.678;13.314;2023-11-21T11:08:20;4.40;94.89
68804;SHT31;55787;52.678;13.314;2023-11-21T11:10:53;4.39;94.76
68804;SHT31;55787;52.678;13.314;2023-11-21T11:13:19;4.48;94.90
68804;SHT31;55787;52.678;13.314;2023-11-21T11:15:47;4.48;94.46
68804;SHT31;55787;52.678;13.314;2023-11-21T11:18:15;4.45;94.41
68804;SHT31;55787;52.678;13.314;2023-11-21T11:20:43;4.43;93.88
68804;SHT31;55787;52.678;13.314;2023-11-21T11:29:00;4.39;93.27
68804;SHT31;55787;52.678;13.314;2023-11-21T11:31:46;4.39;93.65
68804;SHT31;55787;52.678;13.314;2023-11-21T11:36:55;4.40;93.30
68804;SHT31;55787;52.678;13.314;2023-11-21T11:39:30;4.33;93.60
68804;SHT31;55787;52.678;13.314;2023-11-21T11:42:03;4.40;93.43
68804;SHT31;55787;52.678;13.314;2023-11-21T11:47:31;4.39;93.31
68804;SHT31;55787;52.678;13.314;2023-11-21T11:52:45;4.39;92.26
68804;SHT31;55787;52.678;13.314;2023-11-21T11:55:14;4.36;92.71
68804;SHT31;55787;52.678;13.314;2023-11-21T11:57:42;4.39;92.76
68804;SHT31;55787;52.678;13.314;2023-11-21T12:00:19;4.43;92.75
68804;SHT31;55787;52.678;13.314;2023-11-21T12:02:49;4.43;92.63
68804;SHT31;55787;52.678;13.314;2023-11-21T12:05:17;4.45;92.86
68804;SHT31;55787;52.678;13.314;2023-11-21T12:07:52;4.40;92.77
68804;SHT31;55787;52.678;13.314;2023-11-21T12:10:25;4.33;93.05
68804;SHT31;55787;52.678;13.314;2023-11-21T12:13:26;4.31;93.62
68804;SHT31;55787;52.678;13.314;2023-11-21T12:15:45;4.23;93.89
68804;SHT31;55787;52.678;13.314;2023-11-21T12:18:12;4.21;94.38
68804;SHT31;55787;52.678;13.314;2023-11-21T12:20:39;4.13;93.78
68804;SHT31;55787;52.678;13.314;2023-11-21T12:23:07;4.09;93.90
68804;SHT31;55787;52.678;13.314;2023-11-21T12:25:36;4.12;93.88
68804;SHT31;55787;52.678;13.314;2023-11-21T12:28:03;4.05;93.93
68804;SHT31;55787;52.678;13.314;2023-11-21T12:30:32;4.02;93.45
68804;SHT31;55787;52.678;13.314;2023-11-21T12:33:02;3.99;93.71
68804;SHT31;55787;52.678;13.314;2023-11-21T12:35:31;3.92;93.61
68804;SHT31;55787;52.678;13.314;2023-11-21T12:38:01;3.95;93.93
68804;SHT31;55787;52.678;13.314;2023-11-21T12:40:36;3.91;93.94
68804;SHT31;55787;52.678;13.314;2023-11-21T12:43:02;3.91;93.98
68804;SHT31;55787;52.678;13.314;2023-11-21T12:45:31;3.91;94.01
68804;SHT31;55787;52.678;13.314;2023-11-21T12:48:05;3.85;94.04
68804;SHT31;55787;52.678;13.314;2023-11-21T12:50:38;3.87;93.89
68804;SHT31;55787;52.678;13.314;2023-11-21T12:53:07;3.69;93.81
68804;SHT31;55787;52.678;13.314;2023-11-21T12:55:44;3.70;94.20
68804;SHT31;55787;52.678;13.314;2023-11-21T12:58:17;3.70;93.99
68804;SHT31;55787;52.678;13.314;2023-11-21T13:00:47;3.70;94.35
68804;SHT31;55787;52.678;13.314;2023-11-21T13:03:16;3.71;94.33
68804;SHT31;55787;52.678;13.314;2023-11-21T13:05:47;3.74;94.19
68804;SHT31;55787;52.678;13.314;2023-11-21T13:08:18;3.70;94.08
68804;SHT31;55787;52.678;13.314;2023-11-21T13:10:54;3.59;94.16
68804;SHT31;55787;52.678;13.314;2023-11-21T13:13:23;3.60;94.21
68804;SHT31;55787;52.678;13.314;2023-11-21T13:16:01;3.63;94.14
68804;SHT31;55787;52.678;13.314;2023-11-21T13:18:32;3.59;94.11
68804;SHT31;55787;52.678;13.314;2023-11-21T13:21:02;3.59;94.07
68804;SHT31;55787;52.678;13.314;2023-11-21T13:23:34;3.51;93.59
68804;SHT31;55787;52.678;13.314;2023-11-21T13:26:02;3.51;93.76
68804;SHT31;55787;52.678;13.314;2023-11-21T13:28:33;3.51;93.58
68804;SHT31;55787;52.678;13.314;2023-11-21T13:31:01;3.47;93.39
68804;SHT31;55787;52.678;13.314;2023-11-21T13:33:48;3.41;93.45
68804;SHT31;55787;52.678;13.314;2023-11-21T13:36:24;3.37;93.73
68804;SHT31;55787;52.678;13.314;2023-11-21T13:38:51;3.32;93.24
68804;SHT31;55787;52.678;13.314;2023-11-21T13:41:21;3.29;93.19
68804;SHT31;55787;52.678;13.314;2023-11-21T13:43:54;3.22;93.40
68804;SHT31;55787;52.678;13.314;2023-11-21T13:46:30;3.13;93.55
68804;SHT31;55787;52.678;13.314;2023-11-21T13:49:03;3.12;93.74
68804;SHT31;55787;52.678;13.314;2023-11-21T13:51:32;3.12;93.59
68804;SHT31;55787;52.678;13.314;2023-11-21T13:54:06;3.03;93.39
68804;SHT31;55787;52.678;13.314;2023-11-21T13:56:37;3.01;93.96
68804;SHT31;55787;52.678;13.314;2023-11-21T13:59:05;3.02;94.04
68804;SHT31;55787;52.678;13.314;2023-11-21T14:01:50;3.02;93.79
68804;SHT31;55787;52.678;13.314;2023-11-21T14:04:25;2.98;93.73
68804;SHT31;55787;52.678;13.314;2023-11-21T14:07:08;2.92;93.79
68804;SHT31;55787;52.678;13.314;2023-11-21T14:09:49;2.89;93.98
68804;SHT31;55787;52.678;13.314;2023-11-21T14:12:16;2.84;92.75
68804;SHT31;55787;52.678;13.314;2023-11-21T14:14:43;2.85;92.63
68804;SHT31;55787;52.678;13.314;2023-11-21T14:17:10;2.84;92.44
68804;SHT31;55787;52.678;13.314;2023-11-21T14:19:37;2.81;92.63
68804;SHT31;55787;52.678;13.314;2023-11-21T14:22:07;2.75;92.37
68804;SHT31;55787;52.678;13.314;2023-11-21T14:24:36;2.77;91.99
68804;SHT31;55787;52.678;13.314;2023-11-21T14:27:03;2.75;91.90
68804;SHT31;55787;52.678;13.314;2023-11-21T14:29:30;2.70;92.30
68804;SHT31;55787;52.678;13.314;2023-11-21T14:31:57;2.71;91.61
68804;SHT31;55787;52.678;13.314;2023-11-21T14:34:24;2.70;91.69
68804;SHT31;55787;52.678;13.314;2023-11-21T14:36:53;2.65;91.37
68804;SHT31;55787;52.678;13.314;2023-11-21T14:39:19;2.65;91.76
68804;SHT31;55787;52.678;13.314;2023-11-21T14:41:54;2.55;91.34
68804;SHT31;55787;52.678;13.314;2023-11-21T14:44:25;2.57;90.86
68804;SHT31;55787;52.678;13.314;2023-11-21T14:46:59;2.54;91.56
68804;SHT31;55787;52.678;13.314;2023-11-21T14:49:27;2.52;92.09
68804;SHT31;55787;52.678;13.314;2023-11-21T14:52:01;2.50;91.85
68804;SHT31;55787;52.678;13.314;2023-11-21T14:54:40;2.48;92.92
68804;SHT31;55787;52.678;13.314;2023-11-21T14:57:09;2.52;92.88
68804;SHT31;55787;52.678;13.314;2023-11-21T14:59:46;2.54;92.63
68804;SHT31;55787;52.678;13.314;2023-11-21T15:02:16;2.50;92.43
68804;SHT31;55787;52.678;13.314;2023-11-21T15:04:44;2.52;92.57
68804;SHT31;55787;52.678;13.314;2023-11-21T15:07:11;2.52;92.70
68804;SHT31;55787;52.678;13.314;2023-11-21T15:09:38;2.51;92.05
68804;SHT31;55787;52.678;13.314;2023-11-21T15:12:09;2.48;92.20
68804;SHT31;55787;52.678;13.314;2023-11-21T15:14:50;2.47;92.72
68804;SHT31;55787;52.678;13.314;2023-11-21T15:17:20;2.44;92.38
68804;SHT31;55787;52.678;13.314;2023-11-21T15:19:53;2.42;91.92
68804;SHT31;55787;52.678;13.314;2023-11-21T15:22:20;2.40;92.56
68804;SHT31;55787;52.678;13.314;2023-11-21T15:24:48;2.34;92.84
68804;SHT31;55787;52.678;13.314;2023-11-21T15:27:16;2.33;92.67
68804;SHT31;55787;52.678;13.314;2023-11-21T15:29:43;2.33;91.99
68804;SHT31;55787;52.678;13.314;2023-11-21T15:32:10;2.37;90.53
68804;SHT31;55787;52.678;13.314;2023-11-21T15:34:38;2.31;89.72
68804;SHT31;55787;52.678;13.314;2023-11-21T15:37:07;2.21;89.68
68804;SHT31;55787;52.678;13.314;2023-11-21T15:39:38;2.20;90.13
68804;SHT31;55787;52.678;13.314;2023-11-21T15:42:05;2.14;90.13
68804;SHT31;55787;52.678;13.314;2023-11-21T15:44:33;2.09;90.20
68804;SHT31;55787;52.678;13.314;2023-11-21T15:47:00;2.10;90.55
68804;SHT31;55787;52.678;13.314;2023-11-21T15:49:27;2.10;90.56
68804;SHT31;55787;52.678;13.314;2023-11-21T15:51:56;2.07;90.21